sensor_id;sensor_type;location;lat;lon;timestamp;pressure;altitude;pressure_sealevel;temperature;humidity
29169;BME280;16219;42.864;23.360;2022-10-16T00:01:06;96533.72;;;8.21;100.00
29169;BME280;16219;42.864;23.360;2022-10-16T00:03:34;96532.34;;;8.24;100.00
29169;BME280;16219;42.864;23.360;2022-10-16T00:06:01;96539.09;;;8.40;100.00
29169;BME280;16219;42.864;23.360;2022-10-16T00:08:29;96543.78;;;8.43;100.00
29169;BME280;16219;42.864;23.360;2022-10-16T00:11:01;96542.72;;;8.44;100.00
29169;BME280;16219;42.864;23.360;2022-10-16T00:13:29;96548.66;;;8.26;100.00
29169;BME280;16219;42.864;23.360;2022-10-16T00:15:57;96541.31;;;8.23;100.00
29169;BME280;16219;42.864;23.360;2022-10-16T00:18:25;96543.09;;;8.27;100.00
29169;BME280;16219;42.864;23.360;2022-10-16T00:20:53;96551.22;;;8.31;100.00
29169;BME280;16219;42.864;23.360;2022-10-16T00:23:21;96549.78;;;8.20;100.00
29169;BME280;16219;42.864;23.360;2022-10-16T00:25:55;96549.97;;;8.23;100.00
29169;BME280;16219;42.864;23.360;2022-10-16T00:28:23;96552.59;;;8.23;100.00
29169;BME280;16219;42.864;23.360;2022-10-16T00:30:50;96557.28;;;7.97;100.00
29169;BME280;16219;42.864;23.360;2022-10-16T00:33:18;96548.91;;;7.95;100.00
29169;BME280;16219;42.864;23.360;2022-10-16T00:35:46;96557.75;;;8.05;100.00
29169;BME280;16219;42.864;23.360;2022-10-16T00:38:13;96551.41;;;8.11;100.00
29169;BME280;16219;42.864;23.360;2022-10-16T00:40:41;96547.75;;;8.07;100.00
29169;BME280;16219;42.864;23.360;2022-10-16T00:43:14;96548.63;;;7.97;100.00
29169;BME280;16219;42.864;23.360;2022-10-16T00:45:42;96538.00;;;7.73;100.00
29169;BME280;16219;42.864;23.360;2022-10-16T00:48:12;96540.63;;;7.78;100.00
29169;BME280;16219;42.864;23.360;2022-10-16T00:50:40;96546.50;;;7.99;100.00
29169;BME280;16219;42.864;23.360;2022-10-16T00:53:11;96555.13;;;8.05;100.00
29169;BME280;16219;42.864;23.360;2022-10-16T00:55:38;96548.81;;;8.06;100.00
29169;BME280;16219;42.864;23.360;2022-10-16T00:58:06;96547.94;;;7.81;100.00
29169;BME280;16219;42.864;23.360;2022-10-16T01:00:33;96554.16;;;7.95;100.00
29169;BME280;16219;42.864;23.360;2022-10-16T01:03:02;96550.22;;;7.93;100.00
29169;BME280;16219;42.864;23.360;2022-10-16T01:05:34;96560.72;;;7.93;100.00
29169;BME280;16219;42.864;23.360;2022-10-16T01:08:11;96553.63;;;7.93;100.00
29169;BME280;16219;42.864;23.360;2022-10-16T01:10:43;96557.38;;;7.87;100.00
29169;BME280;16219;42.864;23.360;2022-10-16T01:13:18;96554.78;;;7.82;100.00
29169;BME280;16219;42.864;23.360;2022-10-16T01:15:52;96550.59;;;7.76;100.00
29169;BME280;16219;42.864;23.360;2022-10-16T01:18:29;96552.69;;;7.79;100.00
29169;BME280;16219;42.864;23.360;2022-10-16T01:21:01;96547.59;;;7.54;100.00
29169;BME280;16219;42.864;23.360;2022-10-16T01:23:38;96552.53;;;7.60;100.00
29169;BME280;16219;42.864;23.360;2022-10-16T01:26:23;96550.16;;;7.64;100.00
29169;BME280;16219;42.864;23.360;2022-10-16T01:29:05;96553.03;;;7.67;100.00
29169;BME280;16219;42.864;23.360;2022-10-16T01:31:36;96555.94;;;7.66;100.00
29169;BME280;16219;42.864;23.360;2022-10-16T01:34:10;96551.47;;;7.66;100.00
29169;BME280;16219;42.864;23.360;2022-10-16T01:36:44;96552.28;;;7.62;100.00
29169;BME280;16219;42.864;23.360;2022-10-16T01:39:13;96555.97;;;7.56;100.00
29169;BME280;16219;42.864;23.360;2022-10-16T01:41:44;96562.84;;;7.46;100.00
29169;BME280;16219;42.864;23.360;2022-10-16T01:44:17;96568.16;;;7.36;100.00
29169;BME280;16219;42.864;23.360;2022-10-16T01:46:47;96569.53;;;7.23;100.00
29169;BME280;16219;42.864;23.360;2022-10-16T01:49:16;96565.44;;;6.97;100.00
29169;BME280;16219;42.864;23.360;2022-10-16T01:51:46;96560.91;;;7.13;100.00
29169;BME280;16219;42.864;23.360;2022-10-16T01:54:17;96568.25;;;7.16;100.00
29169;BME280;16219;42.864;23.360;2022-10-16T01:56:47;96560.41;;;7.11;100.00
29169;BME280;16219;42.864;23.360;2022-10-16T01:59:18;96564.78;;;7.25;100.00
29169;BME280;16219;42.864;23.360;2022-10-16T02:01:52;96578.69;;;7.31;100.00
29169;BME280;16219;42.864;23.360;2022-10-16T02:04:24;96575.28;;;7.31;100.00
29169;BME280;16219;42.864;23.360;2022-10-16T02:06:54;96576.59;;;7.28;100.00
29169;BME280;16219;42.864;23.360;2022-10-16T02:09:24;96569.00;;;7.21;100.00
29169;BME280;16219;42.864;23.360;2022-10-16T02:11:53;96586.56;;;7.26;100.00
29169;BME280;16219;42.864;23.360;2022-10-16T02:14:23;96590.53;;;7.23;100.00
29169;BME280;16219;42.864;23.360;2022-10-16T02:16:51;96593.19;;;7.18;100.00
29169;BME280;16219;42.864;23.360;2022-10-16T02:19:19;96595.56;;;7.15;100.00
29169;BME280;16219;42.864;23.360;2022-10-16T02:21:50;96591.94;;;6.90;100.00
29169;BME280;16219;42.864;23.360;2022-10-16T02:24:24;96587.78;;;6.74;100.00
29169;BME280;16219;42.864;23.360;2022-10-16T02:26:59;96594.09;;;6.73;100.00
29169;BME280;16219;42.864;23.360;2022-10-16T02:29:33;96588.00;;;6.93;100.00
29169;BME280;16219;42.864;23.360;2022-10-16T02:32:06;96590.59;;;7.03;100.00
29169;BME280;16219;42.864;23.360;2022-10-16T02:34:34;96593.50;;;7.01;100.00
29169;BME280;16219;42.864;23.360;2022-10-16T02:37:04;96594.78;;;7.04;100.00
29169;BME280;16219;42.864;23.360;2022-10-16T02:39:33;96599.22;;;7.09;100.00
29169;BME280;16219;42.864;23.360;2022-10-16T02:42:01;96599.22;;;7.09;100.00
29169;BME280;16219;42.864;23.360;2022-10-16T02:44:28;96602.13;;;7.07;100.00
29169;BME280;16219;42.864;23.360;2022-10-16T02:46:56;96601.09;;;7.03;100.00
29169;BME280;16219;42.864;23.360;2022-10-16T02:49:24;96606.34;;;7.03;100.00
29169;BME280;16219;42.864;23.360;2022-10-16T02:51:51;96618.69;;;6.97;100.00
29169;BME280;16219;42.864;23.360;2022-10-16T02:54:18;96618.69;;;6.97;100.00
29169;BME280;16219;42.864;23.360;2022-10-16T02:56:45;96616.31;;;6.96;100.00
29169;BME280;16219;42.864;23.360;2022-10-16T02:59:12;96621.84;;;6.89;100.00
29169;BME280;16219;42.864;23.360;2022-10-16T03:01:40;96616.06;;;6.87;100.00
29169;BME280;16219;42.864;23.360;2022-10-16T03:04:08;96606.66;;;6.76;100.00
29169;BME280;16219;42.864;23.360;2022-10-16T03:06:36;96618.72;;;6.82;100.00
29169;BME280;16219;42.864;23.360;2022-10-16T03:09:03;96621.63;;;6.75;100.00
29169;BME280;16219;42.864;23.360;2022-10-16T03:11:30;96623.97;;;6.77;100.00
29169;BME280;16219;42.864;23.360;2022-10-16T03:13:57;96614.53;;;6.71;100.00
29169;BME280;16219;42.864;23.360;2022-10-16T03:16:24;96619.78;;;6.76;100.00
29169;BME280;16219;42.864;23.360;2022-10-16T03:18:51;96618.47;;;6.73;100.00
29169;BME280;16219;42.864;23.360;2022-10-16T03:21:20;96626.06;;;6.75;100.00
29169;BME280;16219;42.864;23.360;2022-10-16T03:23:47;96611.91;;;6.66;100.00
29169;BME280;16219;42.864;23.360;2022-10-16T03:26:14;96634.47;;;6.77;100.00
29169;BME280;16219;42.864;23.360;2022-10-16T03:28:41;96635.50;;;6.71;100.00
29169;BME280;16219;42.864;23.360;2022-10-16T03:31:09;96630.25;;;6.71;100.00
29169;BME280;16219;42.864;23.360;2022-10-16T03:33:36;96627.91;;;6.69;100.00
29169;BME280;16219;42.864;23.360;2022-10-16T03:36:03;96631.06;;;6.61;100.00
29169;BME280;16219;42.864;23.360;2022-10-16T03:38:31;96626.09;;;6.55;100.00
29169;BME280;16219;42.864;23.360;2022-10-16T03:40:58;96630.28;;;6.66;100.00
29169;BME280;16219;42.864;23.360;2022-10-16T03:43:25;96626.34;;;6.68;100.00
29169;BME280;16219;42.864;23.360;2022-10-16T03:45:53;96628.19;;;6.63;100.00
29169;BME280;16219;42.864;23.360;2022-10-16T03:48:20;96627.13;;;6.64;100.00
29169;BME280;16219;42.864;23.360;2022-10-16T03:50:47;96631.31;;;6.65;100.00
29169;BME280;16219;42.864;23.360;2022-10-16T03:53:16;96626.09;;;6.65;100.00
29169;BME280;16219;42.864;23.360;2022-10-16T03:55:44;96628.97;;;6.58;100.00
29169;BME280;16219;42.864;23.360;2022-10-16T03:58:12;96628.44;;;6.56;100.00
29169;BME280;16219;42.864;23.360;2022-10-16T04:00:40;96636.59;;;6.55;100.00
29169;BME280;16219;42.864;23.360;2022-10-16T04:03:08;96626.88;;;6.55;100.00
29169;BME280;16219;42.864;23.360;2022-10-16T04:05:36;96626.88;;;6.55;100.00
29169;BME280;16219;42.864;23.360;2022-10-16T04:08:03;96625.03;;;6.56;100.00
29169;BME280;16219;42.864;23.360;2022-10-16T04:10:31;96629.25;;;6.51;100.00
29169;BME280;16219;42.864;23.360;2022-10-16T04:13:00;96625.84;;;6.36;100.00
29169;BME280;16219;42.864;23.360;2022-10-16T04:15:27;96627.66;;;6.15;100.00
29169;BME280;16219;42.864;23.360;2022-10-16T04:17:54;96632.38;;;6.28;100.00
29169;BME280;16219;42.864;23.360;2022-10-16T04:20:21;96636.31;;;6.31;100.00
29169;BME280;16219;42.864;23.360;2022-10-16T04:22:48;96629.22;;;6.36;100.00
29169;BME280;16219;42.864;23.360;2022-10-16T04:25:18;96636.06;;;6.37;100.00
29169;BME280;16219;42.864;23.360;2022-10-16T04:27:45;96636.03;;;6.27;100.00
29169;BME280;16219;42.864;23.360;2022-10-16T04:30:14;96637.09;;;6.21;100.00
29169;BME280;16219;42.864;23.360;2022-10-16T04:32:41;96632.34;;;5.97;100.00
29169;BME280;16219;42.864;23.360;2022-10-16T04:35:08;96638.06;;;5.89;100.00
29169;BME280;16219;42.864;23.360;2022-10-16T04:37:35;96633.94;;;6.09;100.00
29169;BME280;16219;42.864;23.360;2022-10-16T04:40:03;96642.31;;;6.11;100.00
29169;BME280;16219;42.864;23.360;2022-10-16T04:42:31;96644.44;;;6.09;100.00
29169;BME280;16219;42.864;23.360;2022-10-16T04:44:58;96646.25;;;6.13;100.00
29169;BME280;16219;42.864;23.360;2022-10-16T04:47:27;96645.72;;;6.11;100.00
29169;BME280;16219;42.864;23.360;2022-10-16T04:49:54;96647.03;;;6.14;100.00
29169;BME280;16219;42.864;23.360;2022-10-16T04:52:22;96656.69;;;5.98;100.00
29169;BME280;16219;42.864;23.360;2022-10-16T04:54:50;96656.38;;;5.79;100.00
29169;BME280;16219;42.864;23.360;2022-10-16T04:57:17;96647.78;;;5.94;100.00
29169;BME280;16219;42.864;23.360;2022-10-16T04:59:44;96657.53;;;6.04;100.00
29169;BME280;16219;42.864;23.360;2022-10-16T05:02:11;96654.91;;;6.09;100.00
29169;BME280;16219;42.864;23.360;2022-10-16T05:04:40;96661.97;;;6.13;100.00
29169;BME280;16219;42.864;23.360;2022-10-16T05:07:07;96665.66;;;6.17;100.00
29169;BME280;16219;42.864;23.360;2022-10-16T05:09:34;96660.16;;;6.19;100.00
29169;BME280;16219;42.864;23.360;2022-10-16T05:12:01;96667.22;;;6.23;100.00
29169;BME280;16219;42.864;23.360;2022-10-16T05:14:29;96671.69;;;6.13;100.00
29169;BME280;16219;42.864;23.360;2022-10-16T05:16:56;96664.25;;;5.84;100.00
29169;BME280;16219;42.864;23.360;2022-10-16T05:19:23;96664.22;;;5.79;100.00
29169;BME280;16219;42.864;23.360;2022-10-16T05:21:52;96666.41;;;5.97;100.00
29169;BME280;16219;42.864;23.360;2022-10-16T05:24:19;96668.50;;;6.06;100.00
29169;BME280;16219;42.864;23.360;2022-10-16T05:26:45;96666.94;;;6.20;100.00
29169;BME280;16219;42.864;23.360;2022-10-16T05:29:13;96674.31;;;6.33;100.00
29169;BME280;16219;42.864;23.360;2022-10-16T05:31:40;96664.31;;;6.15;100.00
29169;BME280;16219;42.864;23.360;2022-10-16T05:34:07;96670.38;;;6.20;100.00
29169;BME280;16219;42.864;23.360;2022-10-16T05:36:34;96672.22;;;6.30;100.00
29169;BME280;16219;42.864;23.360;2022-10-16T05:39:03;96671.69;;;6.54;100.00
29169;BME280;16219;42.864;23.360;2022-10-16T05:41:30;96681.66;;;6.67;100.00
29169;BME280;16219;42.864;23.360;2022-10-16T05:43:57;96683.50;;;6.82;100.00
29169;BME280;16219;42.864;23.360;2022-10-16T05:46:24;96687.94;;;6.91;100.00
29169;BME280;16219;42.864;23.360;2022-10-16T05:48:52;96686.59;;;7.09;100.00
29169;BME280;16219;42.864;23.360;2022-10-16T05:51:21;96684.47;;;7.26;100.00
29169;BME280;16219;42.864;23.360;2022-10-16T05:53:48;96673.72;;;7.28;100.00
29169;BME280;16219;42.864;23.360;2022-10-16T05:56:17;96687.31;;;7.45;100.00
29169;BME280;16219;42.864;23.360;2022-10-16T05:58:44;96694.63;;;7.54;100.00
29169;BME280;16219;42.864;23.360;2022-10-16T06:01:13;96694.06;;;7.62;100.00
29169;BME280;16219;42.864;23.360;2022-10-16T06:03:40;96699.03;;;7.73;100.00
29169;BME280;16219;42.864;23.360;2022-10-16T06:06:09;96699.25;;;7.82;100.00
29169;BME280;16219;42.864;23.360;2022-10-16T06:08:36;96707.88;;;7.88;100.00
29169;BME280;16219;42.864;23.360;2022-10-16T06:11:04;96710.25;;;7.94;100.00
29169;BME280;16219;42.864;23.360;2022-10-16T06:13:33;96690.81;;;7.90;100.00
29169;BME280;16219;42.864;23.360;2022-10-16T06:16:01;96726.19;;;8.08;100.00
29169;BME280;16219;42.864;23.360;2022-10-16T06:18:28;96722.25;;;8.06;100.00
29169;BME280;16219;42.864;23.360;2022-10-16T06:20:56;96723.28;;;8.10;100.00
29169;BME280;16219;42.864;23.360;2022-10-16T06:23:25;96724.50;;;8.27;100.00
29169;BME280;16219;42.864;23.360;2022-10-16T06:25:52;96731.31;;;8.39;100.00
29169;BME280;16219;42.864;23.360;2022-10-16T06:28:19;96735.25;;;8.41;100.00
29169;BME280;16219;42.864;23.360;2022-10-16T06:30:48;96727.63;;;8.35;100.00
29169;BME280;16219;42.864;23.360;2022-10-16T06:33:15;96740.22;;;8.43;100.00
29169;BME280;16219;42.864;23.360;2022-10-16T06:35:42;96734.63;;;8.55;100.00
29169;BME280;16219;42.864;23.360;2022-10-16T06:38:09;96736.97;;;8.56;100.00
29169;BME280;16219;42.864;23.360;2022-10-16T06:40:36;96739.22;;;8.73;100.00
29169;BME280;16219;42.864;23.360;2022-10-16T06:43:03;96734.16;;;8.82;100.00
29169;BME280;16219;42.864;23.360;2022-10-16T06:45:30;96745.16;;;8.89;100.00
29169;BME280;16219;42.864;23.360;2022-10-16T06:47:59;96742.72;;;8.97;100.00
29169;BME280;16219;42.864;23.360;2022-10-16T06:50:26;96742.63;;;9.08;100.00
29169;BME280;16219;42.864;23.360;2022-10-16T06:52:53;96743.59;;;9.17;100.00
29169;BME280;16219;42.864;23.360;2022-10-16T06:55:20;96744.16;;;9.14;100.00
29169;BME280;16219;42.864;23.360;2022-10-16T06:57:47;96747.72;;;9.28;100.00
29169;BME280;16219;42.864;23.360;2022-10-16T07:00:15;96747.16;;;9.31;100.00
29169;BME280;16219;42.864;23.360;2022-10-16T07:02:43;96748.97;;;9.36;100.00
29169;BME280;16219;42.864;23.360;2022-10-16T07:05:12;96751.09;;;9.58;100.00
29169;BME280;16219;42.864;23.360;2022-10-16T07:07:39;96744.06;;;9.77;100.00
29169;BME280;16219;42.864;23.360;2022-10-16T07:10:06;96744.25;;;9.81;100.00
29169;BME280;16219;42.864;23.360;2022-10-16T07:12:33;96754.13;;;9.94;100.00
29169;BME280;16219;42.864;23.360;2022-10-16T07:15:01;96755.34;;;10.01;100.00
29169;BME280;16219;42.864;23.360;2022-10-16T07:17:28;96756.03;;;10.12;100.00
29169;BME280;16219;42.864;23.360;2022-10-16T07:19:55;96757.91;;;10.07;100.00
29169;BME280;16219;42.864;23.360;2022-10-16T07:22:24;96752.25;;;10.18;100.00
29169;BME280;16219;42.864;23.360;2022-10-16T07:24:51;96754.56;;;10.25;100.00
29169;BME280;16219;42.864;23.360;2022-10-16T07:27:18;96750.72;;;10.36;100.00
29169;BME280;16219;42.864;23.360;2022-10-16T07:29:47;96752.81;;;10.58;100.00
29169;BME280;16219;42.864;23.360;2022-10-16T07:32:15;96757.28;;;10.76;100.00
29169;BME280;16219;42.864;23.360;2022-10-16T07:34:42;96749.81;;;10.97;100.00
29169;BME280;16219;42.864;23.360;2022-10-16T07:37:09;96759.16;;;11.09;100.00
29169;BME280;16219;42.864;23.360;2022-10-16T07:39:38;96746.75;;;11.23;100.00
29169;BME280;16219;42.864;23.360;2022-10-16T07:42:05;96749.72;;;11.35;100.00
29169;BME280;16219;42.864;23.360;2022-10-16T07:44:33;96753.38;;;11.53;100.00
29169;BME280;16219;42.864;23.360;2022-10-16T07:47:00;96752.69;;;11.75;100.00
29169;BME280;16219;42.864;23.360;2022-10-16T07:49:27;96754.69;;;11.83;100.00
29169;BME280;16219;42.864;23.360;2022-10-16T07:51:54;96751.16;;;11.88;100.00
29169;BME280;16219;42.864;23.360;2022-10-16T07:54:22;96754.69;;;11.83;100.00
29169;BME280;16219;42.864;23.360;2022-10-16T07:56:50;96751.81;;;11.93;100.00
29169;BME280;16219;42.864;23.360;2022-10-16T07:59:17;96752.91;;;12.06;100.00
29169;BME280;16219;42.864;23.360;2022-10-16T08:01:44;96756.81;;;12.22;100.00
29169;BME280;16219;42.864;23.360;2022-10-16T08:04:11;96760.09;;;12.42;100.00
29169;BME280;16219;42.864;23.360;2022-10-16T08:06:39;96752.44;;;12.54;100.00
29169;BME280;16219;42.864;23.360;2022-10-16T08:09:08;96749.78;;;12.54;100.00
29169;BME280;16219;42.864;23.360;2022-10-16T08:11:38;96745.59;;;12.75;100.00
29169;BME280;16219;42.864;23.360;2022-10-16T08:14:08;96746.25;;;12.81;100.00
29169;BME280;16219;42.864;23.360;2022-10-16T08:16:35;96742.47;;;12.96;100.00
29169;BME280;16219;42.864;23.360;2022-10-16T08:19:03;96741.25;;;13.02;100.00
29169;BME280;16219;42.864;23.360;2022-10-16T08:21:30;96744.59;;;13.16;100.00
29169;BME280;16219;42.864;23.360;2022-10-16T08:23:57;96734.44;;;13.32;100.00
29169;BME280;16219;42.864;23.360;2022-10-16T08:26:26;96738.72;;;13.50;100.00
29169;BME280;16219;42.864;23.360;2022-10-16T08:28:54;96735.38;;;13.67;100.00
29169;BME280;16219;42.864;23.360;2022-10-16T08:31:23;96739.91;;;13.75;100.00
29169;BME280;16219;42.864;23.360;2022-10-16T08:33:51;96736.22;;;13.85;100.00
29169;BME280;16219;42.864;23.360;2022-10-16T08:36:18;96735.47;;;13.93;100.00
29169;BME280;16219;42.864;23.360;2022-10-16T08:38:48;96736.91;;;14.17;100.00
29169;BME280;16219;42.864;23.360;2022-10-16T08:41:30;96732.88;;;14.28;100.00
29169;BME280;16219;42.864;23.360;2022-10-16T08:44:15;96736.50;;;14.41;100.00
29169;BME280;16219;42.864;23.360;2022-10-16T08:46:54;96733.38;;;14.56;100.00
29169;BME280;16219;42.864;23.360;2022-10-16T08:49:27;96731.22;;;14.67;100.00
29169;BME280;16219;42.864;23.360;2022-10-16T08:51:55;96736.38;;;14.72;100.00
29169;BME280;16219;42.864;23.360;2022-10-16T08:54:29;96734.31;;;14.78;100.00
29169;BME280;16219;42.864;23.360;2022-10-16T08:57:04;96745.59;;;14.92;100.00
29169;BME280;16219;42.864;23.360;2022-10-16T08:59:35;96742.59;;;14.93;100.00
29169;BME280;16219;42.864;23.360;2022-10-16T09:02:22;96743.69;;;15.10;100.00
29169;BME280;16219;42.864;23.360;2022-10-16T09:05:08;96729.88;;;15.16;100.00
29169;BME280;16219;42.864;23.360;2022-10-16T09:07:46;96731.75;;;15.24;100.00
29169;BME280;16219;42.864;23.360;2022-10-16T09:10:26;96728.94;;;15.30;100.00
29169;BME280;16219;42.864;23.360;2022-10-16T09:13:02;96726.75;;;15.23;100.00
29169;BME280;16219;42.864;23.360;2022-10-16T09:15:40;96730.31;;;15.36;100.00
29169;BME280;16219;42.864;23.360;2022-10-16T09:18:16;96735.44;;;15.49;100.00
29169;BME280;16219;42.864;23.360;2022-10-16T09:20:49;96734.94;;;15.65;100.00
29169;BME280;16219;42.864;23.360;2022-10-16T09:23:19;96732.09;;;15.70;100.00
29169;BME280;16219;42.864;23.360;2022-10-16T09:25:50;96728.03;;;15.64;100.00
29169;BME280;16219;42.864;23.360;2022-10-16T09:28:18;96720.69;;;15.61;100.00
29169;BME280;16219;42.864;23.360;2022-10-16T09:30:46;96730.56;;;15.69;100.00
29169;BME280;16219;42.864;23.360;2022-10-16T09:33:18;96718.75;;;15.79;100.00
29169;BME280;16219;42.864;23.360;2022-10-16T09:35:47;96730.63;;;15.90;100.00
29169;BME280;16219;42.864;23.360;2022-10-16T09:38:25;96730.44;;;15.95;96.05
29169;BME280;16219;42.864;23.360;2022-10-16T09:40:54;96729.53;;;16.12;100.00
29169;BME280;16219;42.864;23.360;2022-10-16T09:43:26;96732.28;;;16.24;100.00
29169;BME280;16219;42.864;23.360;2022-10-16T09:45:58;96727.16;;;16.19;95.19
29169;BME280;16219;42.864;23.360;2022-10-16T09:48:33;96710.78;;;16.29;93.37
29169;BME280;16219;42.864;23.360;2022-10-16T09:51:03;96713.00;;;16.27;90.58
29169;BME280;16219;42.864;23.360;2022-10-16T09:53:42;96710.03;;;16.49;97.28
29169;BME280;16219;42.864;23.360;2022-10-16T09:56:11;96708.47;;;16.48;96.28
29169;BME280;16219;42.864;23.360;2022-10-16T09:58:49;96703.38;;;16.56;92.96
29169;BME280;16219;42.864;23.360;2022-10-16T10:01:17;96708.34;;;16.66;91.80
29169;BME280;16219;42.864;23.360;2022-10-16T10:03:45;96705.00;;;16.69;91.82
29169;BME280;16219;42.864;23.360;2022-10-16T10:06:18;96698.41;;;16.75;86.89
29169;BME280;16219;42.864;23.360;2022-10-16T10:08:59;96702.78;;;16.71;85.06
29169;BME280;16219;42.864;23.360;2022-10-16T10:11:47;96694.41;;;16.81;87.60
29169;BME280;16219;42.864;23.360;2022-10-16T10:14:20;96699.78;;;16.93;88.38
29169;BME280;16219;42.864;23.360;2022-10-16T10:16:49;96692.00;;;16.88;84.42
29169;BME280;16219;42.864;23.360;2022-10-16T10:19:20;96695.91;;;16.91;83.80
29169;BME280;16219;42.864;23.360;2022-10-16T10:21:48;96692.94;;;17.05;76.11
29169;BME280;16219;42.864;23.360;2022-10-16T10:24:17;96687.16;;;17.03;61.42
29169;BME280;16219;42.864;23.360;2022-10-16T10:26:51;96677.25;;;17.03;70.12
29169;BME280;16219;42.864;23.360;2022-10-16T10:29:27;96680.28;;;17.14;64.35
29169;BME280;16219;42.864;23.360;2022-10-16T10:32:05;96674.97;;;17.14;54.41
29169;BME280;16219;42.864;23.360;2022-10-16T10:34:50;96682.75;;;17.19;52.01
29169;BME280;16219;42.864;23.360;2022-10-16T10:37:29;96667.53;;;17.32;47.39
29169;BME280;16219;42.864;23.360;2022-10-16T10:40:04;96670.44;;;17.39;49.77
29169;BME280;16219;42.864;23.360;2022-10-16T10:42:38;96665.34;;;17.46;47.28
29169;BME280;16219;42.864;23.360;2022-10-16T10:45:17;96667.09;;;17.54;48.43
29169;BME280;16219;42.864;23.360;2022-10-16T10:47:59;96667.22;;;17.58;49.34
29169;BME280;16219;42.864;23.360;2022-10-16T10:50:37;96665.44;;;17.49;48.72
29169;BME280;16219;42.864;23.360;2022-10-16T10:53:13;96670.66;;;17.70;43.58
29169;BME280;16219;42.864;23.360;2022-10-16T10:55:48;96656.13;;;17.68;45.68
29169;BME280;16219;42.864;23.360;2022-10-16T10:58:29;96663.44;;;17.71;44.93
29169;BME280;16219;42.864;23.360;2022-10-16T11:01:07;96663.22;;;17.64;45.19
29169;BME280;16219;42.864;23.360;2022-10-16T11:03:50;96655.44;;;17.71;44.86
29169;BME280;16219;42.864;23.360;2022-10-16T11:06:26;96660.59;;;17.76;45.86
29169;BME280;16219;42.864;23.360;2022-10-16T11:09:02;96660.69;;;17.80;44.50
29169;BME280;16219;42.864;23.360;2022-10-16T11:11:33;96657.03;;;17.84;46.06
29169;BME280;16219;42.864;23.360;2022-10-16T11:14:06;96646.34;;;17.84;42.61
29169;BME280;16219;42.864;23.360;2022-10-16T11:16:42;96643.22;;;17.94;41.82
29169;BME280;16219;42.864;23.360;2022-10-16T11:19:13;96641.84;;;18.01;43.21
29169;BME280;16219;42.864;23.360;2022-10-16T11:21:54;96642.66;;;18.01;42.08
29169;BME280;16219;42.864;23.360;2022-10-16T11:24:36;96636.50;;;18.01;40.41
29169;BME280;16219;42.864;23.360;2022-10-16T11:27:07;96645.19;;;18.10;44.34
29169;BME280;16219;42.864;23.360;2022-10-16T11:29:41;96637.38;;;18.17;42.72
29169;BME280;16219;42.864;23.360;2022-10-16T11:32:20;96631.56;;;18.27;40.20
29169;BME280;16219;42.864;23.360;2022-10-16T11:34:53;96644.09;;;18.39;41.16
29169;BME280;16219;42.864;23.360;2022-10-16T11:37:28;96641.75;;;18.37;42.99
29169;BME280;16219;42.864;23.360;2022-10-16T11:40:05;96635.28;;;18.38;41.27
29169;BME280;16219;42.864;23.360;2022-10-16T11:42:49;96641.47;;;18.55;40.13
29169;BME280;16219;42.864;23.360;2022-10-16T11:45:24;96636.28;;;18.46;39.60
29169;BME280;16219;42.864;23.360;2022-10-16T11:47:58;96642.38;;;18.46;41.66
29169;BME280;16219;42.864;23.360;2022-10-16T11:50:31;96648.09;;;18.45;42.57
29169;BME280;16219;42.864;23.360;2022-10-16T11:53:08;96638.41;;;18.40;40.03
29169;BME280;16219;42.864;23.360;2022-10-16T11:55:40;96644.44;;;18.37;41.58
29169;BME280;16219;42.864;23.360;2022-10-16T11:58:14;96644.63;;;18.44;37.77
29169;BME280;16219;42.864;23.360;2022-10-16T12:00:46;96642.38;;;18.46;38.22
29169;BME280;16219;42.864;23.360;2022-10-16T12:03:21;96646.56;;;18.32;39.48
29169;BME280;16219;42.864;23.360;2022-10-16T12:05:58;96626.91;;;18.24;40.86
29169;BME280;16219;42.864;23.360;2022-10-16T12:08:33;96633.41;;;18.39;38.15
29169;BME280;16219;42.864;23.360;2022-10-16T12:11:09;96639.88;;;18.38;37.87
29169;BME280;16219;42.864;23.360;2022-10-16T12:13:37;96637.72;;;18.43;38.73
29169;BME280;16219;42.864;23.360;2022-10-16T12:16:06;96640.28;;;18.52;37.93
29169;BME280;16219;42.864;23.360;2022-10-16T12:18:34;96638.91;;;18.58;37.55
29169;BME280;16219;42.864;23.360;2022-10-16T12:21:03;96638.13;;;18.58;39.46
29169;BME280;16219;42.864;23.360;2022-10-16T12:23:36;96634.44;;;18.62;38.94
29169;BME280;16219;42.864;23.360;2022-10-16T12:26:05;96638.03;;;18.54;39.68
29169;BME280;16219;42.864;23.360;2022-10-16T12:28:33;96642.34;;;18.59;38.00
29169;BME280;16219;42.864;23.360;2022-10-16T12:31:03;96636.66;;;18.60;40.03
29169;BME280;16219;42.864;23.360;2022-10-16T12:33:33;96650.81;;;18.61;38.21
29169;BME280;16219;42.864;23.360;2022-10-16T12:36:03;96641.91;;;18.57;39.10
29169;BME280;16219;42.864;23.360;2022-10-16T12:38:48;96630.25;;;18.49;38.47
29169;BME280;16219;42.864;23.360;2022-10-16T12:41:29;96638.91;;;18.58;38.57
29169;BME280;16219;42.864;23.360;2022-10-16T12:43:57;96632.69;;;18.54;39.41
29169;BME280;16219;42.864;23.360;2022-10-16T12:46:36;96637.44;;;18.61;40.33
29169;BME280;16219;42.864;23.360;2022-10-16T12:49:16;96639.53;;;18.67;39.42
29169;BME280;16219;42.864;23.360;2022-10-16T12:51:46;96633.91;;;18.57;40.61
29169;BME280;16219;42.864;23.360;2022-10-16T12:54:17;96644.13;;;18.55;39.86
29169;BME280;16219;42.864;23.360;2022-10-16T12:56:53;96642.09;;;18.64;38.79
29169;BME280;16219;42.864;23.360;2022-10-16T12:59:31;96648.59;;;18.51;39.22
29169;BME280;16219;42.864;23.360;2022-10-16T13:02:18;96651.03;;;18.56;40.14
29169;BME280;16219;42.864;23.360;2022-10-16T13:05:05;96651.31;;;18.38;39.87